createdAt,value
2022-08-30T00:01:03.378Z,96.09
2022-08-30T00:03:38.682Z,96.34
2022-08-30T00:06:06.694Z,96.79
2022-08-30T00:08:34.939Z,96.77
2022-08-30T00:11:03.448Z,96.75
2022-08-30T00:13:29.986Z,96.62
2022-08-30T00:15:57.288Z,96.69
2022-08-30T00:18:24.486Z,96.62
2022-08-30T00:20:52.449Z,97.16
2022-08-30T00:23:20.268Z,97.21
2022-08-30T00:25:46.956Z,97.07
2022-08-30T00:28:14.917Z,96.81
2022-08-30T00:30:42.355Z,96.42
2022-08-30T00:33:09.094Z,96.93
2022-08-30T00:35:35.703Z,97.17
2022-08-30T00:38:02.470Z,97.07
2022-08-30T00:40:30.934Z,97.06
2022-08-30T00:43:04.122Z,96.82
2022-08-30T00:45:37.553Z,96.95
2022-08-30T00:48:06.385Z,97.24
2022-08-30T00:50:38.710Z,97.29
2022-08-30T00:53:08.699Z,97.20
2022-08-30T00:55:38.798Z,97.09
2022-08-30T00:58:08.620Z,96.94
2022-08-30T01:00:35.889Z,96.79
2022-08-30T01:03:02.792Z,96.74
2022-08-30T01:05:30.115Z,96.76
2022-08-30T01:07:56.647Z,96.70
2022-08-30T01:10:23.315Z,96.72
2022-08-30T01:12:50.140Z,96.75
2022-08-30T01:15:16.849Z,96.79
2022-08-30T01:17:47.661Z,96.91
2022-08-30T01:20:24.223Z,97.09
2022-08-30T01:22:50.788Z,97.19
2022-08-30T01:25:21.304Z,97.11
2022-08-30T01:27:52.368Z,97.06
2022-08-30T01:30:19.068Z,96.84
2022-08-30T01:32:47.626Z,96.84
2022-08-30T01:35:17.048Z,96.79
2022-08-30T01:37:45.356Z,96.94
2022-08-30T01:40:17.053Z,97.32
2022-08-30T01:42:43.562Z,96.75
2022-08-30T01:45:11.500Z,96.74
2022-08-30T01:47:38.646Z,96.77
2022-08-30T01:50:07.400Z,96.39
2022-08-30T01:52:35.350Z,95.97
2022-08-30T01:55:02.692Z,95.86
2022-08-30T01:57:29.392Z,95.88
2022-08-30T01:59:55.936Z,96.07
2022-08-30T02:02:27.414Z,95.82
2022-08-30T02:04:55.122Z,96.57
2022-08-30T02:07:23.838Z,96.57
2022-08-30T02:09:51.814Z,96.57
2022-08-30T02:12:18.947Z,96.61
2022-08-30T02:14:45.651Z,96.68
2022-08-30T02:17:15.160Z,96.57
2022-08-30T02:19:42.670Z,96.44
2022-08-30T02:22:09.381Z,97.15
2022-08-30T02:24:36.002Z,97.10
2022-08-30T02:27:02.702Z,97.22
2022-08-30T02:29:29.689Z,97.47
2022-08-30T02:31:56.423Z,97.07
2022-08-30T02:34:23.124Z,96.12
2022-08-30T02:36:50.037Z,96.66
2022-08-30T02:39:17.884Z,96.83
2022-08-30T02:41:44.494Z,97.04
2022-08-30T02:44:11.317Z,97.32
2022-08-30T02:46:38.662Z,97.38
2022-08-30T02:49:23.809Z,97.82
2022-08-30T02:51:52.005Z,98.41
2022-08-30T02:54:20.183Z,98.23
2022-08-30T02:56:47.981Z,98.29
2022-08-30T02:59:15.787Z,98.26
2022-08-30T03:01:42.446Z,98.17
2022-08-30T03:04:09.854Z,98.00
2022-08-30T03:06:37.197Z,97.97
2022-08-30T03:09:03.920Z,98.25
2022-08-30T03:11:31.536Z,98.05
2022-08-30T03:13:58.659Z,98.42
2022-08-30T03:16:25.255Z,98.10
2022-08-30T03:18:51.914Z,98.34
2022-08-30T03:21:18.705Z,98.37
2022-08-30T03:23:45.707Z,98.46
2022-08-30T03:26:14.827Z,98.30
2022-08-30T03:28:42.700Z,98.12
2022-08-30T03:31:09.679Z,97.79
2022-08-30T03:33:37.804Z,97.91
2022-08-30T03:36:05.689Z,97.86
2022-08-30T03:38:32.468Z,97.54
2022-08-30T03:40:59.038Z,97.37
2022-08-30T03:43:26.481Z,97.49
2022-08-30T03:45:53.184Z,97.43
2022-08-30T03:48:19.745Z,97.84
2022-08-30T03:50:46.332Z,98.14
2022-08-30T03:53:12.972Z,98.19
2022-08-30T03:55:39.515Z,98.28
2022-08-30T03:58:06.000Z,98.80
2022-08-30T04:00:32.550Z,98.39
2022-08-30T04:02:59.131Z,98.66
2022-08-30T04:05:27.393Z,98.67
2022-08-30T04:07:54.288Z,98.84
2022-08-30T04:10:21.369Z,98.60
2022-08-30T04:12:49.918Z,98.78
2022-08-30T04:15:18.050Z,98.75
2022-08-30T04:17:44.905Z,98.67
2022-08-30T04:20:11.563Z,98.37
2022-08-30T04:22:38.210Z,98.39
2022-08-30T04:25:05.883Z,98.39
2022-08-30T04:27:32.583Z,98.19
2022-08-30T04:30:00.227Z,98.37
2022-08-30T04:32:27.177Z,98.21
2022-08-30T04:34:59.900Z,98.38
2022-08-30T04:37:27.447Z,98.37
2022-08-30T04:40:00.739Z,98.51
2022-08-30T04:42:32.205Z,98.80
2022-08-30T04:44:59.486Z,98.63
2022-08-30T04:47:26.295Z,99.09
2022-08-30T04:49:53.379Z,99.10
2022-08-30T04:52:20.132Z,99.09
2022-08-30T04:54:46.707Z,99.29
2022-08-30T04:57:13.289Z,98.80
2022-08-30T04:59:39.862Z,99.00
2022-08-30T05:02:06.491Z,98.94
2022-08-30T05:04:33.026Z,98.79
2022-08-30T05:06:59.534Z,98.66
2022-08-30T05:09:26.124Z,98.42
2022-08-30T05:11:52.947Z,98.62
2022-08-30T05:14:19.522Z,98.89
2022-08-30T05:16:46.400Z,99.42
2022-08-30T05:19:12.991Z,99.32
2022-08-30T05:21:41.357Z,99.97
2022-08-30T05:24:08.263Z,100.00
2022-08-30T05:26:38.326Z,100.00
2022-08-30T05:29:04.976Z,100.00
2022-08-30T05:31:34.878Z,100.00
2022-08-30T05:34:02.355Z,100.00
2022-08-30T05:36:31.133Z,100.00
2022-08-30T05:38:58.042Z,100.00
2022-08-30T05:41:26.533Z,100.00
2022-08-30T05:43:55.452Z,100.00
2022-08-30T05:46:22.434Z,100.00
2022-08-30T05:48:50.666Z,100.00
2022-08-30T05:51:22.984Z,100.00
2022-08-30T05:53:51.398Z,100.00
2022-08-30T05:56:21.643Z,100.00
2022-08-30T05:58:51.586Z,99.66
2022-08-30T06:01:33.139Z,99.81
2022-08-30T06:04:04.032Z,99.64
2022-08-30T06:06:34.542Z,99.77
2022-08-30T06:09:01.831Z,99.76
2022-08-30T06:11:32.194Z,98.69
2022-08-30T06:13:58.719Z,97.78
2022-08-30T06:16:27.547Z,97.58
2022-08-30T06:18:55.678Z,97.75
2022-08-30T06:21:25.662Z,97.92
2022-08-30T06:23:52.913Z,98.26
2022-08-30T06:26:19.752Z,98.03
2022-08-30T06:28:46.328Z,98.11
2022-08-30T06:31:15.250Z,97.49
2022-08-30T06:33:42.770Z,97.79
2022-08-30T06:36:13.323Z,96.93
2022-08-30T06:38:43.508Z,95.50
2022-08-30T06:41:13.155Z,94.77
2022-08-30T06:43:40.255Z,94.32
2022-08-30T06:46:12.514Z,94.49
2022-08-30T06:48:39.276Z,94.67
2022-08-30T06:51:06.505Z,94.99
2022-08-30T06:53:33.702Z,94.59
2022-08-30T06:56:16.555Z,94.22
2022-08-30T06:58:44.124Z,93.57
2022-08-30T07:01:18.053Z,93.81
2022-08-30T07:03:44.780Z,93.86
2022-08-30T07:06:11.525Z,94.80
2022-08-30T07:08:39.081Z,95.74
2022-08-30T07:11:07.661Z,94.20
2022-08-30T07:13:36.215Z,93.65
2022-08-30T07:16:10.750Z,91.56
2022-08-30T07:18:52.190Z,90.61
2022-08-30T07:21:21.373Z,90.54
2022-08-30T07:23:53.256Z,90.86
2022-08-30T07:26:26.608Z,90.74
2022-08-30T07:28:55.725Z,91.00
2022-08-30T07:31:23.291Z,91.62
2022-08-30T07:33:50.080Z,91.17
2022-08-30T07:36:17.761Z,91.73
2022-08-30T07:38:48.375Z,90.12
2022-08-30T07:41:34.192Z,89.37
2022-08-30T07:44:00.852Z,87.81
2022-08-30T07:46:28.299Z,87.03
2022-08-30T07:48:55.959Z,86.59
2022-08-30T07:51:26.078Z,86.92
2022-08-30T07:53:53.515Z,86.25
2022-08-30T07:56:21.768Z,84.87
2022-08-30T07:58:48.946Z,84.42
2022-08-30T08:01:18.746Z,82.90
2022-08-30T08:03:46.743Z,82.47
2022-08-30T08:06:15.737Z,82.66
2022-08-30T08:08:43.689Z,82.15
2022-08-30T08:11:16.487Z,82.86
2022-08-30T08:13:54.211Z,82.43
2022-08-30T08:16:26.894Z,82.17
2022-08-30T08:18:54.779Z,83.39
2022-08-30T08:21:23.446Z,81.58
2022-08-30T08:23:50.476Z,82.57
2022-08-30T08:26:17.583Z,83.08
2022-08-30T08:28:45.072Z,83.82
2022-08-30T08:31:27.193Z,83.23
2022-08-30T08:33:58.715Z,84.64
2022-08-30T08:36:25.558Z,83.34
2022-08-30T08:38:52.574Z,83.66
2022-08-30T08:41:49.885Z,84.92
2022-08-30T08:44:34.725Z,85.42
2022-08-30T08:47:11.242Z,83.16
2022-08-30T08:49:40.133Z,80.11
2022-08-30T08:52:31.575Z,79.43
2022-08-30T08:55:05.304Z,75.07
2022-08-30T08:57:35.651Z,76.64
2022-08-30T09:00:09.399Z,77.89
2022-08-30T09:02:46.460Z,73.27
2022-08-30T09:05:22.510Z,75.42
2022-08-30T09:07:56.381Z,75.17
2022-08-30T09:10:47.002Z,76.93
2022-08-30T09:13:12.971Z,78.97
2022-08-30T09:15:40.945Z,78.52
2022-08-30T09:18:19.532Z,76.87
2022-08-30T09:20:50.562Z,75.47
2022-08-30T09:23:22.579Z,74.33
2022-08-30T09:25:51.768Z,72.84
2022-08-30T09:28:43.424Z,70.10
2022-08-30T09:31:24.415Z,72.62
2022-08-30T09:34:03.603Z,72.52
2022-08-30T09:36:40.817Z,70.05
2022-08-30T09:39:37.716Z,69.29
2022-08-30T09:42:19.758Z,69.01
2022-08-30T09:44:46.945Z,67.64
2022-08-30T09:47:28.093Z,67.82
2022-08-30T09:50:16.886Z,65.00
2022-08-30T09:52:53.326Z,62.77
2022-08-30T09:55:46.440Z,64.84
2022-08-30T09:58:29.348Z,67.46
2022-08-30T10:01:20.271Z,70.09
2022-08-30T10:04:01.490Z,70.27
2022-08-30T10:06:36.820Z,69.54
2022-08-30T10:09:19.544Z,70.14
2022-08-30T10:11:55.075Z,68.27
2022-08-30T10:14:51.046Z,68.84
2022-08-30T10:17:27.066Z,71.06
2022-08-30T10:20:23.620Z,69.19
2022-08-30T10:23:10.655Z,68.82
2022-08-30T10:25:50.154Z,68.51
2022-08-30T10:28:35.193Z,70.54
2022-08-30T10:31:30.999Z,68.82
2022-08-30T10:34:03.418Z,68.34
2022-08-30T10:36:43.439Z,68.65
2022-08-30T10:39:19.649Z,67.66
2022-08-30T10:41:52.168Z,67.34
2022-08-30T10:44:27.847Z,65.63
2022-08-30T10:47:02.750Z,65.03
2022-08-30T10:49:36.356Z,65.77
2022-08-30T10:52:28.976Z,66.56
2022-08-30T10:55:09.723Z,63.85
2022-08-30T10:57:36.750Z,63.69
2022-08-30T11:00:10.877Z,61.25
2022-08-30T11:02:58.859Z,59.07
2022-08-30T11:05:43.791Z,60.39
2022-08-30T11:08:39.570Z,62.49
2022-08-30T11:11:21.426Z,60.84
2022-08-30T11:13:50.975Z,61.91
2022-08-30T11:16:32.860Z,62.66
2022-08-30T11:19:01.433Z,62.17
2022-08-30T11:21:39.062Z,64.91
2022-08-30T11:24:11.499Z,60.95
2022-08-30T11:26:50.876Z,60.52
2022-08-30T11:29:27.033Z,61.14
2022-08-30T11:32:18.400Z,61.43
2022-08-30T11:34:45.998Z,58.94
2022-08-30T11:37:37.358Z,59.78
2022-08-30T11:40:14.291Z,57.12
2022-08-30T11:42:49.545Z,52.07
2022-08-30T11:45:25.310Z,52.88
2022-08-30T11:48:04.450Z,54.14
2022-08-30T11:51:08.906Z,52.90
2022-08-30T11:53:50.805Z,51.79
2022-08-30T11:56:25.130Z,53.17
2022-08-30T11:59:01.747Z,51.92
2022-08-30T12:01:51.900Z,52.37
2022-08-30T12:04:17.720Z,51.12
2022-08-30T12:06:50.142Z,51.62
2022-08-30T12:09:26.373Z,51.42
2022-08-30T12:11:52.860Z,51.37
2022-08-30T12:14:41.455Z,52.84
2022-08-30T12:17:41.731Z,49.17
2022-08-30T12:20:38.691Z,50.63
2022-08-30T12:23:23.797Z,50.12
2022-08-30T12:26:08.503Z,48.59
2022-08-30T12:28:37.596Z,48.14
2022-08-30T12:31:26.125Z,49.62
2022-08-30T12:34:03.394Z,47.79
2022-08-30T12:36:41.267Z,49.71
2022-08-30T12:39:18.939Z,49.17
2022-08-30T12:41:45.635Z,48.12
2022-08-30T12:44:27.720Z,47.62
2022-08-30T12:47:03.074Z,47.50
2022-08-30T12:49:34.248Z,46.37
2022-08-30T12:52:23.413Z,47.17
2022-08-30T12:54:51.436Z,47.20
2022-08-30T12:57:45.230Z,46.75
2022-08-30T13:00:27.370Z,48.96
2022-08-30T13:02:56.539Z,47.24
2022-08-30T13:05:48.199Z,46.49
2022-08-30T13:08:36.463Z,46.49
2022-08-30T13:11:12.317Z,47.26
2022-08-30T13:13:43.598Z,47.56
2022-08-30T13:16:39.513Z,44.97
2022-08-30T13:19:34.161Z,45.12
2022-08-30T13:22:01.994Z,44.05
2022-08-30T13:24:28.796Z,44.37
2022-08-30T13:27:11.828Z,43.47
2022-08-30T13:29:38.493Z,45.44
2022-08-30T13:32:05.197Z,44.32
2022-08-30T13:34:33.864Z,46.03
2022-08-30T13:37:01.983Z,45.13
2022-08-30T13:39:29.008Z,45.74
2022-08-30T13:42:31.208Z,46.07
2022-08-30T13:44:42.614Z,43.74
2022-08-30T13:49:57.959Z,44.39
2022-08-30T13:52:25.794Z,45.43
2022-08-30T13:54:55.118Z,45.44
2022-08-30T14:00:19.976Z,45.89
2022-08-30T14:02:54.883Z,44.76
2022-08-30T14:11:09.351Z,44.62
2022-08-30T14:13:36.106Z,43.71
2022-08-30T14:18:53.935Z,45.40
2022-08-30T14:21:21.491Z,44.53
2022-08-30T14:23:51.206Z,46.74
2022-08-30T14:26:21.186Z,43.86
2022-08-30T14:28:51.406Z,45.20
2022-08-30T14:31:19.021Z,46.84
2022-08-30T14:33:46.752Z,43.13
2022-08-30T14:36:15.439Z,43.44
2022-08-30T14:38:43.120Z,44.17
2022-08-30T14:41:10.846Z,44.57
2022-08-30T14:43:42.007Z,44.99
2022-08-30T14:46:10.157Z,43.62
2022-08-30T14:48:38.756Z,42.66
2022-08-30T14:51:20.219Z,41.74
2022-08-30T14:53:48.139Z,42.91
2022-08-30T14:56:19.794Z,43.19
2022-08-30T14:58:49.927Z,42.69
2022-08-30T15:01:17.523Z,44.44
2022-08-30T15:03:44.136Z,43.06
2022-08-30T15:06:10.915Z,42.24
2022-08-30T15:08:38.022Z,41.50
2022-08-30T15:11:11.453Z,39.63
2022-08-30T15:13:39.193Z,37.69
2022-08-30T15:16:12.011Z,38.14
2022-08-30T15:18:38.651Z,40.94
2022-08-30T15:21:08.392Z,41.84
2022-08-30T15:23:34.883Z,43.07
2022-08-30T15:26:01.635Z,44.01
2022-08-30T15:28:28.156Z,45.59
2022-08-30T15:30:55.579Z,45.67
2022-08-30T15:33:23.203Z,45.76
2022-08-30T15:35:52.366Z,40.72
2022-08-30T15:38:19.683Z,36.42
2022-08-30T15:40:50.230Z,36.62
2022-08-30T15:43:17.096Z,36.14
2022-08-30T15:45:44.254Z,34.37
2022-08-30T15:48:11.576Z,33.41
2022-08-30T15:50:38.182Z,36.21
2022-08-30T15:53:07.406Z,39.23
2022-08-30T15:55:34.108Z,41.99
2022-08-30T15:58:00.837Z,42.53
2022-08-30T16:00:27.594Z,40.36
2022-08-30T16:02:54.227Z,41.90
2022-08-30T16:05:28.028Z,43.44
2022-08-30T16:07:57.490Z,45.31
2022-08-30T16:10:24.273Z,48.44
2022-08-30T16:12:53.471Z,50.12
2022-08-30T16:15:20.162Z,52.22
2022-08-30T16:17:47.115Z,53.34
2022-08-30T16:20:14.572Z,55.29
2022-08-30T16:22:43.610Z,55.65
2022-08-30T16:25:12.891Z,57.15
2022-08-30T16:27:42.979Z,56.65
2022-08-30T16:30:11.670Z,57.52
2022-08-30T16:32:39.778Z,60.11
2022-08-30T16:35:07.738Z,59.80
2022-08-30T16:37:34.260Z,59.26
2022-08-30T16:40:01.534Z,60.92
2022-08-30T16:42:28.208Z,60.69
2022-08-30T16:44:55.240Z,61.67
2022-08-30T16:47:22.285Z,62.17
2022-08-30T16:49:49.709Z,61.36
2022-08-30T16:52:16.983Z,63.62
2022-08-30T16:54:44.967Z,63.97
2022-08-30T16:57:12.327Z,63.63
2022-08-30T16:59:39.052Z,63.14
2022-08-30T17:02:05.599Z,63.37
2022-08-30T17:04:32.666Z,64.11
2022-08-30T17:06:59.203Z,64.49
2022-08-30T17:09:25.825Z,65.35
2022-08-30T17:11:53.055Z,64.02
2022-08-30T17:14:28.181Z,63.67
2022-08-30T17:17:00.531Z,64.66
2022-08-30T17:19:28.823Z,64.50
2022-08-30T17:21:56.355Z,66.20
2022-08-30T17:24:24.852Z,67.11
2022-08-30T17:26:52.527Z,67.82
2022-08-30T17:29:19.475Z,67.80
2022-08-30T17:31:51.158Z,68.25
2022-08-30T17:34:18.676Z,69.72
2022-08-30T17:36:45.293Z,69.82
2022-08-30T17:39:13.027Z,69.27
2022-08-30T17:41:45.628Z,70.27
2022-08-30T17:44:25.534Z,70.74
2022-08-30T17:46:52.780Z,70.57
2022-08-30T17:49:19.327Z,71.37
2022-08-30T17:51:47.693Z,71.22
2022-08-30T17:54:17.790Z,71.22
2022-08-30T17:56:44.655Z,70.72
2022-08-30T17:59:12.178Z,71.25
2022-08-30T18:01:39.609Z,70.89
2022-08-30T18:04:06.657Z,71.37
2022-08-30T18:06:34.470Z,71.81
2022-08-30T18:09:06.715Z,72.20
2022-08-30T18:11:36.113Z,72.30
2022-08-30T18:14:04.207Z,72.59
2022-08-30T18:16:33.466Z,72.48
2022-08-30T18:19:03.475Z,72.97
2022-08-30T18:21:30.134Z,72.73
2022-08-30T18:23:57.097Z,72.39
2022-08-30T18:26:24.583Z,72.27
2022-08-30T18:28:55.141Z,72.18
2022-08-30T18:31:22.192Z,72.44
2022-08-30T18:33:48.763Z,72.54
2022-08-30T18:36:15.896Z,73.14
2022-08-30T18:38:42.722Z,72.87
2022-08-30T18:41:13.934Z,73.04
2022-08-30T18:43:40.696Z,72.70
2022-08-30T18:46:10.356Z,72.67
2022-08-30T18:48:39.160Z,73.39
2022-08-30T18:51:15.035Z,73.26
2022-08-30T18:53:42.667Z,72.72
2022-08-30T18:56:11.174Z,73.79
2022-08-30T18:58:40.413Z,73.76
2022-08-30T19:01:12.778Z,73.64
2022-08-30T19:03:40.155Z,73.24
2022-08-30T19:06:11.518Z,74.29
2022-08-30T19:08:40.180Z,74.11
2022-08-30T19:11:07.912Z,74.15
2022-08-30T19:13:35.510Z,73.90
2022-08-30T19:16:04.199Z,74.89
2022-08-30T19:18:30.850Z,75.19
2022-08-30T19:20:57.559Z,74.84
2022-08-30T19:23:26.983Z,74.99
2022-08-30T19:25:54.466Z,73.77
2022-08-30T19:28:21.284Z,74.78
2022-08-30T19:30:47.857Z,74.59
2022-08-30T19:33:14.407Z,74.18
2022-08-30T19:35:40.960Z,74.47
2022-08-30T19:38:07.519Z,74.89
2022-08-30T19:40:34.752Z,75.97
2022-08-30T19:43:02.232Z,75.44
2022-08-30T19:45:31.439Z,76.07
2022-08-30T19:48:00.833Z,76.07
2022-08-30T19:50:27.451Z,75.89
2022-08-30T19:52:55.312Z,76.90
2022-08-30T19:55:28.671Z,77.27
2022-08-30T19:57:57.059Z,77.40
2022-08-30T20:00:23.715Z,77.19
2022-08-30T20:02:51.448Z,77.68
2022-08-30T20:05:18.935Z,78.23
2022-08-30T20:07:45.624Z,77.54
2022-08-30T20:10:15.202Z,78.17
2022-08-30T20:12:47.535Z,77.80
2022-08-30T20:15:17.434Z,78.07
2022-08-30T20:18:03.238Z,78.12
2022-08-30T20:20:32.829Z,78.36
2022-08-30T20:23:02.228Z,79.52
2022-08-30T20:25:28.860Z,79.85
2022-08-30T20:27:56.041Z,79.60
2022-08-30T20:30:22.633Z,79.61
2022-08-30T20:32:49.445Z,80.13
2022-08-30T20:35:16.744Z,80.39
2022-08-30T20:37:45.072Z,80.55
2022-08-30T20:40:16.043Z,80.47
2022-08-30T20:42:46.776Z,81.08
2022-08-30T20:45:16.679Z,81.59
2022-08-30T20:47:43.963Z,81.60
2022-08-30T20:50:13.865Z,81.57
2022-08-30T20:52:41.979Z,81.36
2022-08-30T20:55:11.626Z,81.50
2022-08-30T20:57:38.716Z,82.09
2022-08-30T21:00:09.779Z,82.29
2022-08-30T21:02:37.248Z,82.05
2022-08-30T21:05:13.297Z,82.50
2022-08-30T21:07:44.852Z,82.55
2022-08-30T21:10:12.758Z,82.62
2022-08-30T21:12:39.691Z,82.69
2022-08-30T21:15:33.792Z,83.30
2022-08-30T21:17:56.936Z,83.54
2022-08-30T21:20:23.474Z,84.17
2022-08-30T21:22:50.000Z,84.28
2022-08-30T21:25:19.478Z,84.67
2022-08-30T21:27:46.054Z,84.67
2022-08-30T21:30:15.871Z,84.89
2022-08-30T21:32:42.478Z,85.22
2022-08-30T21:35:27.659Z,84.69
2022-08-30T21:37:55.469Z,84.06
2022-08-30T21:40:22.058Z,84.54
2022-08-30T21:42:48.628Z,84.72
2022-08-30T21:45:15.859Z,85.02
2022-08-30T21:47:42.501Z,84.94
2022-08-30T21:50:09.461Z,84.89
2022-08-30T21:52:36.246Z,85.19
2022-08-30T21:55:03.074Z,85.05
2022-08-30T21:57:29.674Z,85.32
2022-08-30T21:59:56.163Z,85.46
2022-08-30T22:02:23.478Z,85.89
2022-08-30T22:04:50.136Z,85.23
2022-08-30T22:07:16.797Z,85.83
2022-08-30T22:09:46.169Z,85.62
2022-08-30T22:12:12.742Z,84.21
2022-08-30T22:14:39.444Z,83.82
2022-08-30T22:17:06.004Z,84.62
2022-08-30T22:19:33.758Z,84.13
2022-08-30T22:22:01.727Z,83.69
2022-08-30T22:24:32.409Z,84.06
2022-08-30T22:27:00.301Z,84.04
2022-08-30T22:29:26.961Z,84.34
2022-08-30T22:31:54.316Z,84.09
2022-08-30T22:34:21.216Z,84.71
2022-08-30T22:36:47.723Z,84.37
2022-08-30T22:39:14.451Z,83.92
2022-08-30T22:41:42.937Z,83.77
2022-08-30T22:44:10.200Z,83.37
2022-08-30T22:46:38.080Z,83.56
2022-08-30T22:49:08.015Z,83.71
2022-08-30T22:51:35.381Z,84.01
2022-08-30T22:54:03.091Z,84.08
2022-08-30T22:56:30.792Z,83.88
2022-08-30T22:58:57.370Z,84.42
2022-08-30T23:01:25.778Z,84.34
2022-08-30T23:03:53.409Z,84.84
2022-08-30T23:06:20.259Z,84.96
2022-08-30T23:08:46.963Z,85.24
2022-08-30T23:11:14.055Z,85.45
2022-08-30T23:13:41.744Z,85.61
2022-08-30T23:16:08.769Z,85.92
2022-08-30T23:18:36.935Z,86.04
2022-08-30T23:21:30.951Z,86.60
2022-08-30T23:24:17.549Z,86.94
2022-08-30T23:27:04.411Z,86.97
2022-08-30T23:29:50.337Z,86.92
2022-08-30T23:32:35.783Z,87.17
2022-08-30T23:35:21.027Z,87.42
2022-08-30T23:38:13.996Z,87.89
2022-08-30T23:40:59.026Z,87.84
2022-08-30T23:43:43.972Z,87.96
2022-08-30T23:46:28.831Z,87.44
2022-08-30T23:49:14.022Z,87.84
2022-08-30T23:51:59.163Z,87.76
2022-08-30T23:54:45.268Z,87.36
2022-08-30T23:57:30.326Z,87.32
